• Join FlightAware (Why Join?)
  • Login
  • US Flag 
11:27PM EDT


 

Airport Tracker/Info


-or-


 

Live Flight TrackerFlight Track Log ✈ DAL268 ✈ 14-Jun-2013 ✈ KSFO - KJFK

Flight Track Log - Related Links

Times and Time Zones

All times are in EDT time to prevent confusion due to time zone crossing. See the DAL268 flight status page for this flight to view local times or setup timezone preferences in your user account.

Time Position Orientation Groundspeed Altitude Reporting Facility
EDT Latitude Longitude Course Direction KTS MPH feet Rate Location/Type
02:30PM 37.6080 -122.3840 180° South  Level FlightAware
02:32PM 37.6070 -122.3840 180° South  Level FlightAware
02:38PM 37.8158 -122.1676 38° Northeast  Level FlightAware Approximate
02:41PM 37.8282 -122.1551 38° Northeast  Level FlightAware Approximate
02:41PM 37.6234 -122.3700 26° Northeast 166 191 200  Level FlightAware ADS-B
02:41PM 37.6298 -122.3650 32° Northeast 164 189 500 2,280 Climbing FlightAware ADS-B
02:41PM 37.6321 -122.3640 19° North 168 193 700 2,400 Climbing FlightAware ADS-B
02:42PM 37.6358 -122.3600 41° Northeast 170 196 900 2,460 Climbing FlightAware ADS-B
02:42PM 37.6392 -122.3560 43° Northeast 170 196 1,200 2,160 Climbing FlightAware ADS-B
02:42PM 37.6483 -122.3440 46° Northeast 181 208 1,700 1,680 Climbing FlightAware ADS-B
02:42PM 37.6579 -122.3310 47° Northeast 204 235 2,100 1,740 Climbing FlightAware ADS-B
02:42PM 37.6684 -122.3170 47° Northeast 221 254 2,600 2,280 Climbing FlightAware ADS-B
02:43PM 37.6797 -122.3030 44° Northeast 223 257 3,300 2,220 Climbing FlightAware ADS-B
02:43PM 37.6920 -122.2860 48° Northeast 249 287 3,800 2,160 Climbing FlightAware ADS-B
02:43PM 37.7062 -122.2670 47° Northeast 260 299 4,500 2,880 Climbing FlightAware ADS-B
02:44PM 37.7286 -122.2360 48° Northeast 264 304 6,000 3,120 Climbing FlightAware ADS-B
02:44PM 37.7439 -122.2160 46° Northeast 269 310 6,900 2,760 Climbing FlightAware ADS-B
02:44PM 37.7562 -122.2030 40° Northeast 278 320 7,400 2,640 Climbing FlightAware ADS-B
02:44PM 37.7742 -122.1860 37° Northeast 281 323 8,200 2,700 Climbing FlightAware ADS-B
02:45PM 37.7906 -122.1700 38° Northeast 287 330 8,900 2,580 Climbing FlightAware ADS-B
02:45PM 37.8070 -122.1540 38° Northeast 292 336 9,600 2,340 Climbing FlightAware ADS-B
02:45PM 37.8412 -122.1220 36° Northeast 314 361 10,700 1,740 Climbing FlightAware ADS-B
02:46PM 37.8796 -122.0860 36° Northeast 345 397 11,400 1,920 Climbing FlightAware ADS-B
02:47PM 37.9191 -122.0490 36° Northeast 356 410 12,700 2,520 Climbing FlightAware ADS-B
02:47PM 37.9597 -122.0110 36° Northeast 362 417 14,000 2,460 Climbing FlightAware ADS-B
02:48PM 38.0011 -121.9720 37° Northeast 370 426 15,200 2,220 Climbing FlightAware ADS-B
02:48PM 38.0439 -121.9310 37° Northeast 381 438 16,300 2,160 Climbing FlightAware ADS-B
02:49PM 38.0892 -121.8890 36° Northeast 390 449 17,500 1,560 Climbing FlightAware ADS-B
02:50PM 38.2120 -121.7730 37° Northeast 436 502 19,300 1,440 Climbing FlightAware
02:51PM 38.3050 -121.6840 37° Northeast 455 524 20,800 1,620 Climbing FlightAware
02:51PM 38.3690 -121.6230 37° Northeast 462 532 21,900 1,620 Climbing FlightAware
02:52PM 38.4490 -121.5370 40° Northeast 476 548 23,200 1,500 Climbing FlightAware
02:53PM 38.4906 -121.4730 50° Northeast 483 556 23,900 1,320 Climbing FlightAware ADS-B
02:54PM 38.5696 -121.3370 53° Northeast 488 562 25,200 1,260 Climbing FlightAware ADS-B
02:54PM 38.6109 -121.2650 54° Northeast 504 580 25,800 1,200 Climbing FlightAware ADS-B
02:55PM 38.6618 -121.1770 53° Northeast 508 585 26,600 1,320 Climbing FlightAware ADS-B
02:55PM 38.7060 -121.1000 54° Northeast 514 592 27,300 1,380 Climbing FlightAware ADS-B
02:56PM 38.7708 -120.9880 53° Northeast 516 594 28,400 1,440 Climbing FlightAware ADS-B
02:57PM 38.8620 -120.8300 53° Northeast 516 594 30,000 1,320 Climbing FlightAware
02:58PM 38.9180 -120.7330 53° Northeast 519 597 30,800 720 Climbing FlightAware
02:59PM 38.9760 -120.6340 53° Northeast 521 600 31,000 120 Climbing FlightAware
02:59PM 39.0320 -120.5360 54° Northeast 519 597 31,000  Level FlightAware
03:00PM 39.0980 -120.4200 54° Northeast 520 598 31,000  Level FlightAware
03:01PM 39.1580 -120.3170 53° Northeast 520 598 31,000  Level FlightAware
03:02PM 39.2110 -120.2230 54° Northeast 520 598 31,000 120 Level FlightAware
03:02PM 39.2670 -120.1240 54° Northeast 521 600 31,200 1,020 Climbing FlightAware
03:03PM 39.3290 -120.0150 54° Northeast 517 595 32,400 1,440 Climbing FlightAware
03:04PM 39.3850 -119.9170 54° Northeast 516 594 33,200 1,380 Climbing FlightAware
03:05PM 39.4710 -119.7640 54° Northeast 511 588 34,700 1,380 Climbing FlightAware
03:05PM 39.5330 -119.6520 54° Northeast 509 586 35,600 420 Climbing FlightAware
03:06PM 39.6010 -119.5320 54° Northeast 36,200 300 Climbing FlightAware
03:10PM 39.9150 -118.9630 54° Northeast 514 592 37,000 120 Climbing FlightAware
03:11PM 39.9900 -118.8260 54° Northeast 515 593 37,000  Level FlightAware
03:12PM 40.0830 -118.6550 55° Northeast 515 593 37,000  Level FlightAware
03:13PM 40.1580 -118.4700 62° Northeast 517 595 37,000  Level FlightAware
03:14PM 40.1870 -118.3850 66° East 517 595 37,000  Level FlightAware
03:14PM 40.2270 -118.2680 66° East 517 595 37,000  Level FlightAware
03:15PM 40.2670 -118.1490 66° East 517 595 37,000  Level FlightAware
03:16PM 40.3010 -118.0490 66° East 517 595 37,000  Level FlightAware
03:17PM 40.3410 -117.9320 66° East 517 595 37,000  Level FlightAware
03:17PM 40.3740 -117.8340 66° East 517 595 37,000  Level FlightAware
03:18PM 40.4070 -117.7370 66° East 517 595 37,000  Level FlightAware
03:19PM 40.4460 -117.6220 66° East 517 595 37,000  Level FlightAware
03:19PM 40.4760 -117.5320 66° East 517 595 37,000  Level FlightAware
03:20PM 40.5240 -117.3900 66° East 517 595 37,000  Level FlightAware
03:21PM 40.5650 -117.2700 66° East 517 595 37,000  Level FlightAware
03:22PM 40.5930 -117.1870 66° East 517 595 37,000  Level FlightAware
03:23PM 40.6164 -116.7464 66° East 520 598 37,000  Level Oakland Center
03:23PM 40.6411 -116.6586 70° East 522 601 37,000  Level Salt Lake Center
03:24PM 40.6878 -116.4856 70° East 522 601 37,000  Level Salt Lake Center
03:25PM 40.7344 -116.3125 70° East 522 601 37,000  Level Salt Lake Center
03:26PM 40.7892 -116.1094 70° East 524 603 37,000  Level Salt Lake Center
03:27PM 40.8353 -115.9367 71° East 524 603 37,000  Level Salt Lake Center
03:28PM 40.8881 -115.7344 71° East 522 601 37,000  Level Salt Lake Center
03:29PM 40.9331 -115.5594 71° East 524 603 37,000  Level Salt Lake Center
03:30PM 40.9858 -115.3567 71° East 522 601 37,000  Level Salt Lake Center
03:31PM 41.0297 -115.1817 72° East 523 602 37,000  Level Salt Lake Center
03:32PM 41.0811 -114.9772 71° East 524 603 37,000  Level Salt Lake Center
03:33PM 41.1264 -114.7964 72° East 525 604 37,000  Level Salt Lake Center
03:34PM 41.1731 -114.6117 71° East 527 606 37,000  Level Salt Lake Center
03:35PM 41.2200 -114.4278 71° East 527 606 37,000  Level Salt Lake Center
03:37PM 41.2642 -114.2422 72° East 528 608 37,000  Level Salt Lake Center
03:42PM 41.4900 -113.1770 72° East 533 613 37,000  Level FlightAware
03:42PM 41.5060 -113.1210 69° East 534 615 37,000  Level FlightAware
03:43PM 41.5490 -112.9640 70° East 535 616 37,000  Level FlightAware
03:44PM 41.5760 -112.8620 70° East 534 615 37,000  Level FlightAware
03:44PM 41.6010 -112.7670 71° East 535 616 37,000  Level FlightAware
03:45PM 41.6500 -112.5800 71° East 534 615 37,000  Level FlightAware
03:46PM 41.6560 -112.5570 71° East 535 616 37,000  Level FlightAware
03:47PM 41.7020 -112.3850 70° East 535 616 37,000  Level FlightAware
03:47PM 41.7270 -112.2950 70° East 535 616 37,000  Level FlightAware
03:48PM 41.7620 -112.1660 70° East 535 616 37,000  Level FlightAware
03:49PM 41.7900 -112.0620 70° East 535 616 37,000  Level FlightAware
03:50PM 41.8240 -111.9370 70° East 535 616 37,000  Level FlightAware
03:50PM 41.8550 -111.8230 70° East 535 616 37,000  Level FlightAware
03:51PM 41.8880 -111.7010 70° East 535 616 37,000  Level FlightAware
03:52PM 41.9919 -111.3261 70° East 531 611 37,000  Level Salt Lake Center
03:53PM 42.0417 -111.1394 70° East 530 610 37,000  Level Salt Lake Center
03:54PM 42.0911 -110.9525 70° East 529 609 37,000  Level Salt Lake Center
03:55PM 42.1378 -110.7736 71° East 531 611 37,000  Level Salt Lake Center
03:56PM 42.1922 -110.5650 71° East 530 610 37,000  Level Salt Lake Center
03:57PM 42.2389 -110.3847 71° East 530 610 37,000  Level Salt Lake Center
03:58PM 42.2922 -110.1739 71° East 530 610 37,000  Level Salt Lake Center
03:59PM 42.3381 -109.9931 71° East 531 611 37,000  Level Salt Lake Center
04:00PM 42.3911 -109.7819 71° East 531 611 37,000  Level Salt Lake Center
04:01PM 42.4369 -109.5994 71° East 532 612 37,000  Level Salt Lake Center
04:02PM 42.4825 -109.4181 71° East 531 611 37,000  Level Salt Lake Center
04:03PM 42.5353 -109.2061 71° East 531 611 37,000  Level Salt Lake Center
04:04PM 42.5792 -109.0228 72° East 532 612 37,000  Level Salt Lake Center
04:05PM 42.6311 -108.8108 72° East 529 609 37,000  Level Salt Lake Center
04:06PM 42.6731 -108.6311 72° East 524 603 37,000  Level Salt Lake Center
04:07PM 42.7244 -108.4192 72° East 528 608 37,000  Level Salt Lake Center
04:09PM 42.7664 -108.2375 72° East 525 604 37,000  Level Salt Lake Center
04:10PM 42.8169 -108.0261 72° East 526 605 37,000  Level Salt Lake Center
04:11PM 42.8589 -107.8453 72° East 524 603 37,000  Level Salt Lake Center
04:12PM 42.9008 -107.6633 72° East 525 604 37,000  Level Salt Lake Center
04:13PM 42.9475 -107.4525 73° East 521 600 37,000  Level Salt Lake Center
04:14PM 42.9917 -107.2594 73° East 519 597 37,000  Level Salt Lake Center
04:14PM 43.0042 -107.1978 74° East 518 596 37,000  Level Denver Center
04:15PM 43.0319 -107.0778 72° East 521 600 37,000  Level Salt Lake Center
04:16PM 43.0792 -106.8650 73° East 522 601 37,000  Level Salt Lake Center
04:16PM 43.0919 -106.8033 74° East 522 601 37,000  Level Denver Center
04:17PM 43.1319 -106.6208 73° East 523 602 37,000  Level Denver Center
04:18PM 43.1764 -106.4078 74° East 521 600 37,000  Level Denver Center
04:19PM 43.2161 -106.2247 73° East 523 602 37,000  Level Denver Center
04:20PM 43.2614 -106.0128 74° East 519 597 37,000  Level Denver Center
04:21PM 43.2994 -105.8311 74° East 517 595 37,000  Level Denver Center
04:22PM 43.3433 -105.6167 74° East 521 600 37,000  Level Denver Center
04:23PM 43.3808 -105.4344 74° East 519 597 37,000  Level Denver Center
04:24PM 43.4183 -105.2511 74° East 519 597 37,000  Level Denver Center
04:25PM 43.4617 -105.0361 74° East 520 598 37,000  Level Denver Center
04:26PM 43.4983 -104.8517 75° East 520 598 37,000  Level Denver Center
04:27PM 43.5411 -104.6356 75° East 521 600 37,000  Level Denver Center
04:28PM 43.5769 -104.4522 75° East 519 597 37,000  Level Denver Center
04:30PM 43.6183 -104.2375 75° East 518 596 37,000  Level Denver Center
04:31PM 43.6547 -104.0567 74° East 514 592 37,000  Level Denver Center
04:32PM 43.6897 -103.8700 75° East 520 598 37,000  Level Denver Center
04:33PM 43.7308 -103.6503 75° East 526 605 37,000  Level Denver Center
04:34PM 43.7669 -103.4608 75° East 531 611 37,000  Level Denver Center
04:35PM 43.8078 -103.2411 75° East 530 610 37,000  Level Denver Center
04:36PM 43.8419 -103.0514 76° East 531 611 37,000  Level Denver Center
04:37PM 43.8808 -102.8289 76° East 531 611 37,000  Level Denver Center
04:38PM 43.9164 -102.6258 76° East 529 609 37,000  Level Denver Center
04:39PM 43.9503 -102.4269 77° East 529 609 37,000  Level Denver Center
04:40PM 43.9800 -102.2275 78° East 528 608 37,000  Level Denver Center
04:41PM 44.0139 -102.0294 77° East 529 609 37,000  Level Denver Center
04:42PM 44.0481 -101.8311 76° East 529 609 37,000  Level Denver Center
04:43PM 44.0922 -101.5994 75° East 520 598 37,000  Level Denver Center
04:44PM 44.1211 -101.3967 79° East 532 612 37,000  Level Denver Center
04:45PM 44.1486 -101.2408 76° East 527 606 37,000  Level Minneapolis Center
04:46PM 44.1875 -101.0061 77° East 524 603 37,000  Level Minneapolis Center
04:47PM 44.2192 -100.8081 77° East 524 603 37,000  Level Minneapolis Center
04:48PM 44.2506 -100.6125 77° East 522 601 37,000  Level Minneapolis Center
04:49PM 44.2819 -100.4158 77° East 522 601 37,000  Level Minneapolis Center
04:50PM 44.3122 -100.2189 78° East 523 602 37,000  Level Minneapolis Center
04:51PM 44.3481 -99.9825 78° East 523 602 37,000  Level Minneapolis Center
04:52PM 44.3775 -99.7872 78° East 520 598 37,000  Level Minneapolis Center
04:53PM 44.4067 -99.5897 78° East 522 601 37,000  Level Minneapolis Center
04:54PM 44.4350 -99.3944 78° East 519 597 37,000  Level Minneapolis Center
04:55PM 44.4650 -99.1997 78° East 517 595 37,000  Level Minneapolis Center
05:01PM 44.6150 -98.1170 78° East 518 596 37,000  Level FlightAware
05:01PM 44.6350 -97.9730 79° East 519 597 37,000  Level FlightAware
05:02PM 44.6540 -97.8360 79° East 519 597 37,000  Level FlightAware
05:03PM 44.6770 -97.6460 80° East 522 601 37,000  Level FlightAware
05:04PM 44.6940 -97.5160 80° East 524 603 37,000  Level FlightAware
05:04PM 44.7130 -97.3700 80° East 524 603 37,000  Level FlightAware
05:05PM 44.7300 -97.2320 80° East 523 602 37,000  Level FlightAware
05:06PM 44.7490 -97.0830 80° East 522 601 37,000  Level FlightAware
05:06PM 44.7650 -96.9510 80° East 521 600 37,000  Level FlightAware
05:07PM 44.7810 -96.8220 80° East 521 600 37,000  Level FlightAware
05:08PM 44.7990 -96.6750 80° East 520 598 37,000  Level FlightAware
05:09PM 44.8160 -96.5320 80° East 515 593 37,000  Level FlightAware
05:09PM 44.8300 -96.4080 81° East 497 572 37,000  Level FlightAware
05:10PM 44.8570 -96.1800 80° East 482 555 37,000  Level FlightAware
05:11PM 44.8730 -96.0390 81° East 486 559 37,000  Level FlightAware
05:12PM 44.8860 -95.9230 81° East 488 562 37,000  Level FlightAware
05:13PM 44.9070 -95.7350 81° East 489 563 37,000  Level FlightAware
05:13PM 44.9200 -95.6210 81° East 490 564 37,000  Level FlightAware
05:14PM 44.9360 -95.4740 81° East 491 565 37,000  Level FlightAware
05:15PM 44.9510 -95.3400 81° East 491 565 37,000  Level FlightAware
05:16PM 44.9640 -95.2130 82° East 491 565 37,000  Level FlightAware
05:16PM 44.9780 -95.0880 81° East 491 565 37,000  Level FlightAware
05:17PM 44.9920 -94.9490 82° East 488 562 37,000  Level FlightAware
05:18PM 45.0060 -94.8170 81° East 486 559 37,000  Level FlightAware
05:18PM 45.0200 -94.6810 82° East 485 558 37,000  Level FlightAware
05:19PM 45.0310 -94.5690 82° East 484 557 37,000  Level FlightAware
05:20PM 45.0470 -94.4150 82° East 486 559 37,000  Level FlightAware
05:21PM 45.0610 -94.2770 82° East 487 560 37,000  Level FlightAware
05:21PM 45.0720 -94.1630 82° East 489 563 37,000  Level FlightAware
05:22PM 45.0860 -94.0150 82° East 492 566 37,000  Level FlightAware
05:23PM 45.0970 -93.8950 83° East 493 567 37,000  Level FlightAware
05:23PM 45.1110 -93.7470 82° East 494 568 37,000  Level FlightAware
05:24PM 45.1180 -93.6760 82° East 495 570 37,000 120 Level FlightAware
05:25PM 45.1360 -93.4830 82° East 495 570 37,200 360 Climbing FlightAware
05:25PM 45.1390 -93.4280 86° East 497 572 37,500 720 Climbing FlightAware
05:26PM 45.1210 -93.3020 101° East 495 570 37,900 480 Climbing FlightAware
05:26PM 45.0830 -93.2060 119° Southeast 490 564 38,000 60 Climbing FlightAware
05:27PM 45.0340 -93.1010 123° Southeast 495 570 38,000  Level FlightAware
05:28PM 44.9840 -92.9880 122° Southeast 498 573 38,000  Level FlightAware
05:28PM 44.9210 -92.8400 121° Southeast 501 577 38,000  Level FlightAware
05:29PM 44.8810 -92.7430 120° Southeast 505 581 38,000  Level FlightAware
05:31PM 44.7660 -92.4710 121° Southeast 513 590 38,000  Level FlightAware
05:31PM 44.7170 -92.3560 121° Southeast 514 592 38,000  Level FlightAware
05:32PM 44.6650 -92.2350 121° Southeast 517 595 38,000  Level FlightAware
05:33PM 44.6040 -92.0950 121° Southeast 520 598 38,000 480 Level FlightAware
05:34PM 44.5490 -91.9680 121° Southeast 517 595 38,800 720 Climbing FlightAware
05:34PM 44.4990 -91.8540 122° Southeast 517 595 39,000 120 Climbing FlightAware
05:35PM 44.4510 -91.7450 122° Southeast 517 595 39,000  Level FlightAware
05:36PM 44.3890 -91.6020 121° Southeast 516 594 39,000  Level FlightAware
05:36PM 44.3350 -91.4820 122° Southeast 517 595 39,000  Level FlightAware
05:37PM 44.2870 -91.3740 122° Southeast 518 596 39,000  Level FlightAware
05:38PM 44.2340 -91.2550 122° Southeast 519 597 39,000  Level FlightAware
05:38PM 44.1760 -91.1240 122° Southeast 520 598 39,000  Level FlightAware
05:39PM 44.1260 -91.0130 122° Southeast 521 600 39,000  Level FlightAware
05:40PM 44.0380 -90.8190 122° Southeast 523 602 39,000  Level FlightAware
05:41PM 43.9820 -90.6960 122° Southeast 525 604 39,000  Level FlightAware
05:42PM 43.9270 -90.5750 122° Southeast 526 605 39,000  Level FlightAware
05:42PM 43.8710 -90.4520 122° Southeast 528 608 39,000  Level FlightAware
05:43PM 43.8160 -90.3330 123° Southeast 529 609 39,000  Level FlightAware
05:44PM 43.7590 -90.2100 123° Southeast 531 611 39,000  Level FlightAware
05:44PM 43.7080 -90.1000 123° Southeast 532 612 39,000  Level FlightAware
05:45PM 43.6600 -89.9960 123° Southeast 533 613 39,000  Level FlightAware
05:46PM 43.5750 -89.8130 123° Southeast 535 616 39,000  Level FlightAware
05:47PM 43.5410 -89.6990 112° Southeast 534 615 39,000  Level FlightAware
05:48PM 43.5130 -89.5490 104° East 525 604 39,000  Level FlightAware
05:48PM 43.4890 -89.4050 103° East 520 598 39,000  Level FlightAware
05:49PM 43.4660 -89.2710 103° East 516 594 39,000  Level FlightAware
05:50PM 43.4450 -89.1500 103° East 515 593 39,000  Level FlightAware
05:50PM 43.4200 -89.0030 103° East 526 605 39,000  Level FlightAware
05:51PM 43.4000 -88.8890 104° East 529 609 39,000  Level FlightAware
05:52PM 43.3730 -88.7410 104° East 535 616 39,000  Level FlightAware
05:52PM 43.3460 -88.5880 104° East 540 621 39,000  Level FlightAware
05:53PM 43.3200 -88.4470 104° East 543 625 39,000  Level FlightAware
05:54PM 43.2990 -88.3330 104° East 544 626 39,000  Level FlightAware
05:55PM 43.2690 -88.1680 104° East 545 627 39,000  Level FlightAware
05:55PM 43.2420 -88.0230 104° East 545 627 39,000  Level FlightAware
05:56PM 43.2230 -87.9170 104° East 544 626 39,000  Level FlightAware
05:57PM 43.1910 -87.7510 105° East 544 626 39,000  Level FlightAware
05:57PM 43.1640 -87.6060 104° East 543 625 39,000  Level FlightAware
05:58PM 43.1390 -87.4770 105° East 541 623 39,000  Level FlightAware
05:59PM 43.1100 -87.3240 105° East 540 621 39,000  Level FlightAware
05:59PM 43.0840 -87.1910 105° East 539 620 39,000  Level FlightAware
06:00PM 43.0510 -87.0210 105° East 539 620 39,000  Level FlightAware
06:01PM 43.0140 -86.8340 105° East 537 618 39,000  Level FlightAware
06:02PM 42.9910 -86.7180 105° East 536 617 39,000  Level FlightAware
06:03PM 42.9610 -86.5680 105° East 534 615 39,000  Level FlightAware
06:03PM 42.9300 -86.4130 105° East 534 615 39,000  Level FlightAware
06:04PM 42.9020 -86.2750 105° East 535 616 39,000  Level FlightAware
06:05PM 42.8660 -86.0960 105° East 534 615 39,000  Level FlightAware
06:06PM 42.8420 -85.9790 106° East 534 615 39,000  Level FlightAware
06:07PM 42.8080 -85.8140 106° East 535 616 39,000  Level FlightAware
06:07PM 42.7800 -85.6830 106° East 535 616 39,000  Level FlightAware
06:08PM 42.7520 -85.5500 106° East 534 615 39,000  Level FlightAware
06:09PM 42.7250 -85.4190 106° East 533 613 39,000  Level FlightAware
06:09PM 42.6990 -85.2990 106° East 532 612 39,000  Level FlightAware
06:10PM 42.6640 -85.0980 103° East 524 603 39,000  Level FlightAware
06:11PM 42.6450 -84.9310 99° East 521 600 39,000  Level FlightAware
06:12PM 42.6310 -84.8020 98° East 519 597 39,000  Level FlightAware
06:12PM 42.6150 -84.6580 99° East 518 596 39,000  Level FlightAware
06:13PM 42.6030 -84.5450 98° East 517 595 39,000  Level FlightAware
06:14PM 42.5860 -84.4010 99° East 517 595 39,000  Level FlightAware
06:15PM 42.5710 -84.2650 98° East 516 594 39,000  Level FlightAware
06:15PM 42.5520 -84.1050 99° East 516 594 39,000  Level FlightAware
06:16PM 42.5340 -83.9510 99° East 515 593 39,000  Level FlightAware
06:17PM 42.5180 -83.8210 99° East 515 593 39,000  Level FlightAware
06:18PM 42.5010 -83.6770 99° East 517 595 39,000  Level FlightAware
06:18PM 42.4860 -83.5500 99° East 516 594 39,000  Level FlightAware
06:19PM 42.4690 -83.4160 100° East 517 595 39,000  Level FlightAware
06:20PM 42.4530 -83.2860 99° East 517 595 39,000  Level FlightAware
06:20PM 42.4360 -83.1480 99° East 517 595 39,000  Level FlightAware
06:21PM 42.4180 -83.0100 100° East 517 595 39,000  Level FlightAware
06:22PM 42.4020 -82.8810 99° East 514 592 39,000  Level FlightAware
06:22PM 42.3860 -82.7580 100° East 511 588 39,000  Level FlightAware
06:23PM 42.3760 -82.6160 95° East 504 580 39,000  Level FlightAware
06:24PM 42.3710 -82.5000 93° East 502 578 39,000  Level FlightAware
06:25PM 42.3650 -82.3500 93° East 498 573 39,000  Level FlightAware
06:25PM 42.3600 -82.2200 93° East 498 573 39,000  Level FlightAware
06:26PM 42.3530 -82.0270 93° East 495 570 39,000  Level FlightAware
06:27PM 42.3540 -81.8960 89° East 492 566 39,000  Level FlightAware
06:28PM 42.3590 -81.7420 87° East 489 563 39,000  Level FlightAware
06:29PM 42.3660 -81.5820 87° East 488 562 39,000  Level FlightAware
06:29PM 42.3700 -81.4690 87° East 489 563 39,000  Level FlightAware
06:30PM 42.3640 -81.3120 93° East 498 573 39,000  Level FlightAware
06:31PM 42.3500 -81.1980 99° East 501 577 39,000  Level FlightAware
06:32PM 42.3330 -81.0620 100° East 500 575 39,000  Level FlightAware
06:32PM 42.3170 -80.9330 99° East 499 574 39,000  Level FlightAware
06:33PM 42.3000 -80.8020 100° East 496 571 39,000  Level FlightAware
06:34PM 42.2840 -80.6880 101° East 494 568 39,000  Level FlightAware
06:35PM 42.2650 -80.5450 100° East 493 567 39,000  Level FlightAware
06:35PM 42.2400 -80.3600 100° East 490 564 39,000  Level FlightAware
06:36PM 42.2220 -80.2280 100° East 489 563 39,000  Level FlightAware
06:37PM 42.2060 -80.1150 101° East 489 563 39,000  Level FlightAware
06:38PM 42.1880 -79.9900 101° East 487 560 39,000  Level FlightAware
06:38PM 42.1710 -79.8690 101° East 486 559 39,000  Level FlightAware
06:39PM 42.1520 -79.7350 101° East 486 559 39,000  Level FlightAware
06:40PM 42.1280 -79.5700 101° East 487 560 39,000  Level FlightAware
06:41PM 42.1090 -79.4370 101° East 487 560 39,000  Level FlightAware
06:41PM 42.0930 -79.3310 101° East 488 562 39,000  Level FlightAware
06:42PM 42.0710 -79.1840 101° East 489 563 39,000  Level FlightAware
06:43PM 42.0540 -79.0660 101° East 489 563 39,000  Level FlightAware
06:43PM 42.0360 -78.9460 101° East 490 564 39,000  Level FlightAware
06:44PM 42.0150 -78.8120 102° East 491 565 39,000  Level FlightAware
06:45PM 42.0000 -78.7080 101° East 492 566 39,000  Level FlightAware
06:46PM 41.9750 -78.5510 102° East 495 570 39,000  Level FlightAware
06:46PM 41.9570 -78.4340 102° East 497 572 39,000  Level FlightAware
06:47PM 41.9370 -78.3050 102° East 499 574 39,000  Level FlightAware
06:48PM 41.9180 -78.1830 102° East 500 575 39,000  Level FlightAware
06:48PM 41.8970 -78.0520 102° East 497 572 39,000  Level FlightAware
06:49PM 41.8760 -77.9240 102° East 496 571 39,000  Level FlightAware
06:50PM 41.8490 -77.7910 105° East 498 573 39,000  Level FlightAware
06:50PM 41.8190 -77.6770 109° East 496 571 39,000  Level FlightAware
06:51PM 41.7760 -77.5140 109° East 495 570 39,000  Level FlightAware
06:52PM 41.7490 -77.4110 109° East 494 568 39,000  Level FlightAware
06:53PM 41.7140 -77.2820 110° East 494 568 39,000  Level FlightAware
06:53PM 41.6870 -77.1810 110° East 495 570 39,000  Level FlightAware
06:54PM 41.6457 -77.0293 110° East 496 571 39,000  Level FlightAware ADS-B
06:55PM 41.6168 -76.9228 110° East 498 573 39,000  Level FlightAware ADS-B
06:55PM 41.5907 -76.8269 110° East 499 574 39,000  Level FlightAware ADS-B
06:56PM 41.5652 -76.7336 110° East 501 577 39,000  Level FlightAware ADS-B
06:56PM 41.5408 -76.6448 110° East 503 579 39,000  Level FlightAware ADS-B
06:57PM 41.5166 -76.5572 110° East 504 580 39,000 -240 Level FlightAware ADS-B
06:57PM 41.4909 -76.4641 110° East 505 581 38,800 -840 Descending FlightAware ADS-B
06:58PM 41.4640 -76.3675 110° East 506 582 38,100 -1,080 Descending FlightAware ADS-B
06:58PM 41.4392 -76.2788 110° East 504 580 37,700 -840 Descending FlightAware ADS-B
06:59PM 41.4081 -76.1680 110° East 499 574 37,200 -1,260 Descending FlightAware ADS-B
07:00PM 41.3774 -76.0583 110° East 505 581 36,100 -2,220 Descending FlightAware ADS-B
07:00PM 41.3489 -75.9568 110° East 505 581 34,500 -2,880 Descending FlightAware ADS-B
07:01PM 41.3220 -75.8618 111° Southeast 504 580 32,900 -2,880 Descending FlightAware ADS-B
07:01PM 41.2973 -75.7747 111° Southeast 499 574 31,500 -2,940 Descending FlightAware ADS-B
07:02PM 41.2708 -75.6858 112° Southeast 497 572 29,900 -3,240 Descending FlightAware ADS-B
07:02PM 41.2420 -75.5966 113° Southeast 496 571 28,100 -3,480 Descending FlightAware ADS-B
07:03PM 41.2137 -75.5112 114° Southeast 494 568 26,300 -3,300 Descending FlightAware ADS-B
07:03PM 41.1848 -75.4253 114° Southeast 486 559 24,700 -2,880 Descending FlightAware ADS-B
07:04PM 41.1571 -75.3434 114° Southeast 477 549 23,400 -1,680 Descending FlightAware ADS-B
07:05PM 41.1288 -75.2600 114° Southeast 472 543 23,000 -420 Descending FlightAware ADS-B
07:05PM 41.1001 -75.1751 114° Southeast 469 540 23,000  Level FlightAware ADS-B
07:06PM 41.0731 -75.0954 114° Southeast 473 544 23,000  Level FlightAware ADS-B
07:06PM 41.0461 -75.0160 114° Southeast 473 544 23,000  Level FlightAware ADS-B
07:07PM 41.0178 -74.9329 114° Southeast 473 544 23,000  Level FlightAware ADS-B
07:07PM 41.0059 -74.8942 112° Southeast 471 542 23,000 -540 Level FlightAware ADS-B
07:07PM 40.9942 -74.8417 106° East 470 541 22,700 -1,440 Descending FlightAware ADS-B
07:08PM 40.9826 -74.7540 100° East 478 550 21,800 -1,500 Descending FlightAware ADS-B
07:08PM 40.9732 -74.6651 98° East 477 549 21,200 -1,140 Descending FlightAware ADS-B
07:09PM 40.9641 -74.5778 98° East 476 548 20,700 -1,560 Descending FlightAware ADS-B
07:09PM 40.9546 -74.4884 98° East 466 536 19,600 -1,680 Descending FlightAware ADS-B
07:10PM 40.9450 -74.4015 98° East 455 524 19,000 -720 Descending FlightAware ADS-B
07:10PM 40.9389 -74.3475 98° East 454 522 19,000  Level FlightAware ADS-B
07:10PM 40.9333 -74.3159 103° East 460 529 19,000  Level FlightAware ADS-B
07:10PM 40.9216 -74.2765 111° Southeast 453 521 19,000  Level FlightAware ADS-B
07:11PM 40.9087 -74.2472 120° Southeast 440 506 19,000  Level FlightAware ADS-B
07:11PM 40.8934 -74.2216 128° Southeast 429 494 19,000  Level FlightAware ADS-B
07:11PM 40.8846 -74.2098 135° Southeast 420 483 19,000  Level FlightAware ADS-B
07:11PM 40.8717 -74.1954 140° Southeast 410 472 19,000  Level FlightAware ADS-B
07:12PM 40.8259 -74.1556 147° Southeast 377 434 19,000  Level FlightAware ADS-B
07:12PM 40.8008 -74.1359 149° Southeast 364 419 19,000 -240 Level FlightAware ADS-B
07:12PM 40.7847 -74.1279 159° South 361 415 18,900 -900 Descending FlightAware ADS-B
07:12PM 40.7675 -74.1220 165° South 358 412 18,700 -1,320 Descending FlightAware ADS-B
07:13PM 40.7326 -74.1115 167° South 356 410 18,200 -1,380 Descending FlightAware ADS-B
07:13PM 40.7186 -74.1075 168° South 355 409 18,000 -1,440 Descending FlightAware ADS-B
07:13PM 40.6988 -74.1003 165° South 351 404 17,700 -1,680 Descending FlightAware ADS-B
07:13PM 40.6901 -74.0962 160° South 351 404 17,500 -1,620 Descending FlightAware ADS-B
07:14PM 40.6483 -74.0749 159° South 347 399 16,800 -1,560 Descending FlightAware ADS-B
07:14PM 40.6023 -74.0507 158° South 344 396 16,000 -1,440 Descending FlightAware ADS-B
07:15PM 40.5559 -74.0262 158° South 339 390 15,300 -1,320 Descending FlightAware ADS-B
07:15PM 40.5082 -74.0011 158° South 337 388 14,600 -1,740 Descending FlightAware ADS-B
07:16PM 40.4633 -73.9775 158° South 333 383 13,500 -2,460 Descending FlightAware ADS-B
07:16PM 40.4199 -73.9545 158° South 334 384 12,100 -2,640 Descending FlightAware ADS-B
07:17PM 40.3809 -73.9338 158° South 330 380 11,000 -2,340 Descending FlightAware ADS-B
07:17PM 40.3722 -73.9271 150° Southeast 327 376 10,800 -2,160 Descending FlightAware ADS-B
07:17PM 40.3475 -73.9017 142° Southeast 318 366 10,000 -2,340 Descending FlightAware ADS-B
07:17PM 40.3304 -73.8834 141° Southeast 315 362 9,400 -2,460 Descending FlightAware ADS-B
07:18PM 40.3120 -73.8636 141° Southeast 313 360 8,700 -2,280 Descending FlightAware ADS-B
07:18PM 40.2952 -73.8452 140° Southeast 309 356 8,200 -1,980 Descending FlightAware ADS-B
07:18PM 40.2779 -73.8263 140° Southeast 297 342 7,700 -1,980 Descending FlightAware ADS-B
07:18PM 40.2622 -73.8088 140° Southeast 292 336 7,200 -2,220 Descending FlightAware ADS-B
07:19PM 40.2458 -73.7803 127° Southeast 283 326 6,400 -2,340 Descending FlightAware ADS-B
07:19PM 40.2522 -73.7294 81° East 263 303 5,100 -1,380 Descending FlightAware ADS-B
07:20PM 40.3120 -73.6610 41° Northeast 261 300 4,100 -780 Descending FlightAware
07:21PM 40.3270 -73.6440 41° Northeast 263 303 4,100  Level FlightAware
07:22PM 40.3738 -73.5936 39° Northeast 264 304 4,100  Level FlightAware ADS-B
07:22PM 40.4220 -73.5410 40° Northeast 264 304 4,100  Level FlightAware
07:23PM 40.4480 -73.5150 37° Northeast 256 295 4,100  Level FlightAware
07:23PM 40.4750 -73.4940 31° Northeast 227 261 4,100  Level FlightAware
07:24PM 40.4910 -73.4880 16° North 219 252 4,100  Level FlightAware
07:24PM 40.5160 -73.4820 10° North 215 247 4,100  Level FlightAware
07:24PM 40.5430 -73.4760 10° North 220 253 4,100  Level FlightAware
07:25PM 40.5540 -73.4740 North 221 254 4,100  Level FlightAware
07:25PM 40.5860 -73.4670 North 218 251 4,100  Level FlightAware
07:26PM 40.6150 -73.4610 North 220 253 4,100  Level FlightAware
07:26PM 40.6380 -73.4570 North 218 251 4,100  Level FlightAware
07:27PM 40.6840 -73.4480 North 218 251 4,100  Level FlightAware
07:27PM 40.7040 -73.4440 North 219 252 4,100  Level FlightAware
07:28PM 40.7340 -73.4460 357° North 199 229 4,100  Level FlightAware
07:28PM 40.7570 -73.4530 347° North 177 204 4,100  Level FlightAware
07:28PM 40.7740 -73.4580 347° North 177 204 4,100  Level FlightAware
07:29PM 40.7960 -73.4640 348° North 178 205 4,100  Level FlightAware
07:29PM 40.8150 -73.4680 351° North 178 205 4,100  Level FlightAware
07:30PM 40.8330 -73.4750 344° North 175 201 4,100 -540 Level FlightAware
07:30PM 40.8340 -73.5240 272° West 185 213 3,500 -840 Descending FlightAware
07:31PM 40.8240 -73.5530 246° West 188 216 3,100 -1,020 Descending FlightAware
07:31PM 40.8090 -73.5790 233° Southwest 187 215 2,600 -960 Descending FlightAware
07:32PM 40.7940 -73.6060 234° Southwest 182 209 2,200 -600 Descending FlightAware
07:32PM 40.7820 -73.6270 233° Southwest 179 206 2,100 -120 Descending FlightAware
07:33PM 40.7680 -73.6530 235° Southwest 182 209 2,100  Level FlightAware
07:33PM 40.7490 -73.6730 219° Southwest 184 212 2,100 -120 Level FlightAware
07:34PM 40.7270 -73.6910 212° Southwest 184 212 2,000 -600 Descending FlightAware
07:34PM 40.7100 -73.7040 210° Southwest 166 191 1,600 -1,020 Descending FlightAware
07:34PM 40.6980 -73.7130 210° Southwest 148 170 1,300 -780 Descending FlightAware
07:35PM 40.6890 -73.7210 214° Southwest 133 153 1,100 -660 Descending FlightAware
07:35PM 40.6700 -73.7360 211° Southwest 128 147 700 -720 Descending FlightAware
07:36PM 40.6540 -73.7480 210° Southwest 126 145 400 -720 Descending FlightAware
07:36PM 40.6430 -73.7570 212° Southwest 130 150 100 -840 Descending FlightAware